sensor_id;sensor_type;location;lat;lon;timestamp;pressure;altitude;pressure_sealevel;temperature;humidity
72210;BME280;60113;48.762;12.302;2023-08-06T00:01:48;96462.00;;;13.41;92.03
72210;BME280;60113;48.762;12.302;2023-08-06T00:04:16;96451.44;;;13.41;92.30
72210;BME280;60113;48.762;12.302;2023-08-06T00:06:42;96447.84;;;13.42;92.99
72210;BME280;60113;48.762;12.302;2023-08-06T00:09:07;96452.97;;;13.44;92.00
72210;BME280;60113;48.762;12.302;2023-08-06T00:11:36;96460.72;;;13.45;92.12
72210;BME280;60113;48.762;12.302;2023-08-06T00:14:10;96463.06;;;13.48;92.71
72210;BME280;60113;48.762;12.302;2023-08-06T00:16:36;96470.69;;;13.52;92.89
72210;BME280;60113;48.762;12.302;2023-08-06T00:19:10;96469.56;;;13.54;93.08
72210;BME280;60113;48.762;12.302;2023-08-06T00:21:38;96466.75;;;13.56;93.83
72210;BME280;60113;48.762;12.302;2023-08-06T00:24:06;96458.84;;;13.56;95.23
72210;BME280;60113;48.762;12.302;2023-08-06T00:26:34;96461.47;;;13.56;93.15
72210;BME280;60113;48.762;12.302;2023-08-06T00:29:03;96453.41;;;13.57;93.49
72210;BME280;60113;48.762;12.302;2023-08-06T00:31:31;96457.03;;;13.56;95.56
72210;BME280;60113;48.762;12.302;2023-08-06T00:34:08;96467.59;;;13.56;94.16
72210;BME280;60113;48.762;12.302;2023-08-06T00:36:37;96468.56;;;13.55;95.58
72210;BME280;60113;48.762;12.302;2023-08-06T00:39:11;96472.50;;;13.51;95.62
72210;BME280;60113;48.762;12.302;2023-08-06T00:41:45;96465.00;;;13.46;94.88
72210;BME280;60113;48.762;12.302;2023-08-06T00:44:23;96466.31;;;13.42;96.80
72210;BME280;60113;48.762;12.302;2023-08-06T00:46:48;96469.41;;;13.37;95.11
72210;BME280;60113;48.762;12.302;2023-08-06T00:49:16;96462.94;;;13.32;93.84
72210;BME280;60113;48.762;12.302;2023-08-06T00:51:42;96463.25;;;13.29;93.06
72210;BME280;60113;48.762;12.302;2023-08-06T00:54:11;96465.22;;;13.27;91.80
72210;BME280;60113;48.762;12.302;2023-08-06T00:56:55;96468.00;;;13.25;93.18
72210;BME280;60113;48.762;12.302;2023-08-06T00:59:22;96452.16;;;13.25;92.00
72210;BME280;60113;48.762;12.302;2023-08-06T01:01:48;96447.72;;;13.25;92.86
72210;BME280;60113;48.762;12.302;2023-08-06T01:04:24;96447.59;;;13.27;93.02
72210;BME280;60113;48.762;12.302;2023-08-06T01:15:33;96448.22;;;13.29;94.28
72210;BME280;60113;48.762;12.302;2023-08-06T01:18:03;96449.06;;;13.30;91.69
72210;BME280;60113;48.762;12.302;2023-08-06T01:20:31;96435.72;;;13.31;90.98
72210;BME280;60113;48.762;12.302;2023-08-06T01:23:08;96442.81;;;13.31;91.03
72210;BME280;60113;48.762;12.302;2023-08-06T01:25:43;96439.34;;;13.30;91.14
72210;BME280;60113;48.762;12.302;2023-08-06T01:28:36;96439.34;;;13.30;93.41
72210;BME280;60113;48.762;12.302;2023-08-06T01:31:18;96436.34;;;13.25;92.56
72210;BME280;60113;48.762;12.302;2023-08-06T01:33:47;96434.84;;;13.22;90.52
72210;BME280;60113;48.762;12.302;2023-08-06T01:36:16;96427.25;;;13.19;90.30
72210;BME280;60113;48.762;12.302;2023-08-06T01:38:46;96420.44;;;13.17;90.88
72210;BME280;60113;48.762;12.302;2023-08-06T01:41:12;96431.16;;;13.15;90.63
72210;BME280;60113;48.762;12.302;2023-08-06T01:43:37;96432.13;;;13.14;91.29
72210;BME280;60113;48.762;12.302;2023-08-06T01:46:17;96423.69;;;13.10;92.21
72210;BME280;60113;48.762;12.302;2023-08-06T01:48:43;96420.25;;;13.10;92.07
72210;BME280;60113;48.762;12.302;2023-08-06T01:51:08;96415.13;;;13.08;95.29
72210;BME280;60113;48.762;12.302;2023-08-06T01:53:52;96413.31;;;13.09;95.15
72210;BME280;60113;48.762;12.302;2023-08-06T01:56:20;96409.03;;;13.08;94.82
72210;BME280;60113;48.762;12.302;2023-08-06T01:58:48;96416.09;;;13.07;95.51
72210;BME280;60113;48.762;12.302;2023-08-06T02:01:13;96416.94;;;13.08;95.69
72210;BME280;60113;48.762;12.302;2023-08-06T02:03:41;96415.28;;;13.07;95.29
72210;BME280;60113;48.762;12.302;2023-08-06T02:06:09;96412.81;;;13.05;94.91
72210;BME280;60113;48.762;12.302;2023-08-06T02:08:34;96410.47;;;13.02;95.24
72210;BME280;60113;48.762;12.302;2023-08-06T02:11:08;96405.34;;;13.00;95.52
72210;BME280;60113;48.762;12.302;2023-08-06T02:13:34;96396.75;;;12.98;95.46
72210;BME280;60113;48.762;12.302;2023-08-06T02:15:59;96401.34;;;12.96;96.28
72210;BME280;60113;48.762;12.302;2023-08-06T02:18:27;96401.34;;;12.96;97.08
72210;BME280;60113;48.762;12.302;2023-08-06T02:21:01;96399.69;;;12.95;95.99
72210;BME280;60113;48.762;12.302;2023-08-06T02:23:27;96389.44;;;12.92;97.73
72210;BME280;60113;48.762;12.302;2023-08-06T02:26:00;96391.25;;;12.92;98.33
72210;BME280;60113;48.762;12.302;2023-08-06T02:28:30;96388.91;;;12.88;96.84
72210;BME280;60113;48.762;12.302;2023-08-06T02:31:04;96394.34;;;12.87;97.20
72210;BME280;60113;48.762;12.302;2023-08-06T02:33:31;96391.84;;;12.85;96.49
72210;BME280;60113;48.762;12.302;2023-08-06T02:36:01;96395.63;;;12.83;97.23
72210;BME280;60113;48.762;12.302;2023-08-06T02:38:29;96386.25;;;12.80;97.57
72210;BME280;60113;48.762;12.302;2023-08-06T02:41:02;96391.50;;;12.80;98.93
72210;BME280;60113;48.762;12.302;2023-08-06T02:43:28;96386.69;;;12.75;98.65
72210;BME280;60113;48.762;12.302;2023-08-06T02:45:57;96389.31;;;12.75;99.54
72210;BME280;60113;48.762;12.302;2023-08-06T02:48:22;96389.63;;;12.72;99.30
72210;BME280;60113;48.762;12.302;2023-08-06T02:50:50;96395.84;;;12.71;99.48
72210;BME280;60113;48.762;12.302;2023-08-06T02:53:16;96387.94;;;12.71;99.76
72210;BME280;60113;48.762;12.302;2023-08-06T02:55:46;96391.56;;;12.70;99.34
72210;BME280;60113;48.762;12.302;2023-08-06T02:58:18;96402.56;;;12.66;97.99
72210;BME280;60113;48.762;12.302;2023-08-06T03:01:05;96391.22;;;12.65;98.32
72210;BME280;60113;48.762;12.302;2023-08-06T03:03:31;96395.13;;;12.61;96.30
72210;BME280;60113;48.762;12.302;2023-08-06T03:06:00;96395.56;;;12.56;97.84
72210;BME280;60113;48.762;12.302;2023-08-06T03:08:28;96390.59;;;12.53;97.48
72210;BME280;60113;48.762;12.302;2023-08-06T03:10:57;96400.63;;;12.49;98.20
72210;BME280;60113;48.762;12.302;2023-08-06T03:13:22;96397.59;;;12.44;98.66
72210;BME280;60113;48.762;12.302;2023-08-06T03:15:55;96392.63;;;12.41;97.10
72210;BME280;60113;48.762;12.302;2023-08-06T03:18:21;96392.94;;;12.38;96.42
72210;BME280;60113;48.762;12.302;2023-08-06T03:20:53;96386.31;;;12.34;96.11
72210;BME280;60113;48.762;12.302;2023-08-06T03:23:21;96393.53;;;12.32;96.58
72210;BME280;60113;48.762;12.302;2023-08-06T03:25:46;96382.47;;;12.28;96.94
72210;BME280;60113;48.762;12.302;2023-08-06T03:28:24;96388.84;;;12.25;95.95
72210;BME280;60113;48.762;12.302;2023-08-06T03:31:02;96385.69;;;12.22;94.42
72210;BME280;60113;48.762;12.302;2023-08-06T03:33:31;96388.47;;;12.20;93.97
72210;BME280;60113;48.762;12.302;2023-08-06T03:35:56;96394.72;;;12.19;93.62
72210;BME280;60113;48.762;12.302;2023-08-06T03:38:22;96395.72;;;12.18;94.54
72210;BME280;60113;48.762;12.302;2023-08-06T03:40:51;96396.66;;;12.17;93.47
72210;BME280;60113;48.762;12.302;2023-08-06T03:43:19;96395.84;;;12.17;94.54
72210;BME280;60113;48.762;12.302;2023-08-06T03:45:44;96397.78;;;12.15;94.40
72210;BME280;60113;48.762;12.302;2023-08-06T03:48:19;96395.16;;;12.15;94.44
72210;BME280;60113;48.762;12.302;2023-08-06T03:50:52;96397.94;;;12.13;93.88
72210;BME280;60113;48.762;12.302;2023-08-06T03:53:18;96398.94;;;12.12;93.16
72210;BME280;60113;48.762;12.302;2023-08-06T03:55:46;96394.63;;;12.11;92.82
72210;BME280;60113;48.762;12.302;2023-08-06T03:58:11;96397.25;;;12.11;93.36
72210;BME280;60113;48.762;12.302;2023-08-06T04:00:39;96403.34;;;12.11;92.67
72210;BME280;60113;48.762;12.302;2023-08-06T04:03:07;96389.34;;;12.11;92.24
72210;BME280;60113;48.762;12.302;2023-08-06T04:05:41;96382.44;;;12.10;92.58
72210;BME280;60113;48.762;12.302;2023-08-06T04:08:07;96377.31;;;12.08;92.75
72210;BME280;60113;48.762;12.302;2023-08-06T04:10:38;96380.38;;;12.04;93.66
72210;BME280;60113;48.762;12.302;2023-08-06T04:13:09;96388.41;;;12.02;93.15
72210;BME280;60113;48.762;12.302;2023-08-06T04:15:37;96388.41;;;12.02;92.49
72210;BME280;60113;48.762;12.302;2023-08-06T04:18:11;96390.06;;;12.03;93.42
72210;BME280;60113;48.762;12.302;2023-08-06T04:20:44;96397.00;;;12.04;93.25
72210;BME280;60113;48.762;12.302;2023-08-06T04:23:13;96396.00;;;12.05;93.16
72210;BME280;60113;48.762;12.302;2023-08-06T04:25:38;96395.03;;;12.06;93.53
72210;BME280;60113;48.762;12.302;2023-08-06T04:28:13;96393.22;;;12.07;93.05
72210;BME280;60113;48.762;12.302;2023-08-06T04:30:41;96387.00;;;12.08;94.03
72210;BME280;60113;48.762;12.302;2023-08-06T04:33:12;96386.06;;;12.09;93.22
72210;BME280;60113;48.762;12.302;2023-08-06T04:35:43;96386.06;;;12.09;92.91
72210;BME280;60113;48.762;12.302;2023-08-06T04:38:12;96383.28;;;12.10;94.04
72210;BME280;60113;48.762;12.302;2023-08-06T04:40:43;96377.88;;;12.12;93.12
72210;BME280;60113;48.762;12.302;2023-08-06T04:43:14;96370.78;;;12.12;94.20
72210;BME280;60113;48.762;12.302;2023-08-06T04:45:54;96379.22;;;12.16;94.02
72210;BME280;60113;48.762;12.302;2023-08-06T04:48:22;96379.22;;;12.16;94.03
72210;BME280;60113;48.762;12.302;2023-08-06T04:50:49;96385.16;;;12.18;93.49
72210;BME280;60113;48.762;12.302;2023-08-06T04:53:16;96386.81;;;12.19;94.65
72210;BME280;60113;48.762;12.302;2023-08-06T04:55:44;96393.72;;;12.20;94.29
72210;BME280;60113;48.762;12.302;2023-08-06T04:58:13;96394.56;;;12.21;94.70
72210;BME280;60113;48.762;12.302;2023-08-06T05:00:51;96399.84;;;12.21;94.01
72210;BME280;60113;48.762;12.302;2023-08-06T05:03:23;96398.19;;;12.20;95.22
72210;BME280;60113;48.762;12.302;2023-08-06T05:05:51;96387.81;;;12.18;98.45
72210;BME280;60113;48.762;12.302;2023-08-06T05:08:17;96393.06;;;12.18;96.29
72210;BME280;60113;48.762;12.302;2023-08-06T05:10:46;96394.19;;;12.16;96.05
72210;BME280;60113;48.762;12.302;2023-08-06T05:13:14;96390.88;;;12.13;95.41
72210;BME280;60113;48.762;12.302;2023-08-06T05:15:43;96391.97;;;12.11;94.84
72210;BME280;60113;48.762;12.302;2023-08-06T05:18:10;96392.13;;;12.09;93.80
72210;BME280;60113;48.762;12.302;2023-08-06T05:20:42;96388.69;;;12.09;94.15
72210;BME280;60113;48.762;12.302;2023-08-06T05:23:08;96372.88;;;12.09;94.01
72210;BME280;60113;48.762;12.302;2023-08-06T05:25:42;96380.66;;;12.10;95.16
72210;BME280;60113;48.762;12.302;2023-08-06T05:28:11;96382.28;;;12.11;94.92
72210;BME280;60113;48.762;12.302;2023-08-06T05:30:40;96388.09;;;12.15;95.24
72210;BME280;60113;48.762;12.302;2023-08-06T05:33:06;96392.38;;;12.16;94.99
72210;BME280;60113;48.762;12.302;2023-08-06T05:35:34;96386.81;;;12.19;93.70
72210;BME280;60113;48.762;12.302;2023-08-06T05:37:59;96381.41;;;12.21;94.39
72210;BME280;60113;48.762;12.302;2023-08-06T05:40:25;96386.53;;;12.22;95.19
72210;BME280;60113;48.762;12.302;2023-08-06T05:42:53;96377.47;;;12.25;95.44
72210;BME280;60113;48.762;12.302;2023-08-06T05:45:21;96375.38;;;12.29;96.80
72210;BME280;60113;48.762;12.302;2023-08-06T05:47:50;96380.38;;;12.32;97.48
72210;BME280;60113;48.762;12.302;2023-08-06T05:50:15;96375.63;;;12.35;97.05
72210;BME280;60113;48.762;12.302;2023-08-06T05:52:41;96376.00;;;12.41;96.46
72210;BME280;60113;48.762;12.302;2023-08-06T05:55:06;96372.59;;;12.48;96.79
72210;BME280;60113;48.762;12.302;2023-08-06T05:57:37;96356.34;;;12.53;95.78
72210;BME280;60113;48.762;12.302;2023-08-06T06:00:04;96356.56;;;12.60;95.96
72210;BME280;60113;48.762;12.302;2023-08-06T06:02:40;96357.25;;;12.62;95.39
72210;BME280;60113;48.762;12.302;2023-08-06T06:05:11;96355.13;;;12.66;97.06
72210;BME280;60113;48.762;12.302;2023-08-06T06:07:36;96363.56;;;12.69;95.62
72210;BME280;60113;48.762;12.302;2023-08-06T06:10:02;96365.06;;;12.72;96.71
72210;BME280;60113;48.762;12.302;2023-08-06T06:12:40;96355.22;;;12.74;96.30
72210;BME280;60113;48.762;12.302;2023-08-06T06:15:13;96355.72;;;12.78;98.18
72210;BME280;60113;48.762;12.302;2023-08-06T06:17:48;96349.47;;;12.79;96.56
72210;BME280;60113;48.762;12.302;2023-08-06T06:20:22;96353.47;;;12.83;97.07
72210;BME280;60113;48.762;12.302;2023-08-06T06:22:47;96357.44;;;12.87;96.06
72210;BME280;60113;48.762;12.302;2023-08-06T06:25:12;96347.25;;;12.92;96.90
72210;BME280;60113;48.762;12.302;2023-08-06T06:27:44;96357.34;;;12.97;97.74
72210;BME280;60113;48.762;12.302;2023-08-06T06:30:09;96350.78;;;13.01;98.33
72210;BME280;60113;48.762;12.302;2023-08-06T06:32:37;96354.78;;;13.05;98.99
72210;BME280;60113;48.762;12.302;2023-08-06T06:35:12;96346.41;;;13.10;98.09
72210;BME280;60113;48.762;12.302;2023-08-06T06:37:37;96345.94;;;13.15;96.83
72210;BME280;60113;48.762;12.302;2023-08-06T06:40:11;96346.28;;;13.20;97.15
72210;BME280;60113;48.762;12.302;2023-08-06T06:42:37;96354.41;;;13.27;96.00
72210;BME280;60113;48.762;12.302;2023-08-06T06:45:05;96355.28;;;13.35;96.73
72210;BME280;60113;48.762;12.302;2023-08-06T06:47:37;96353.66;;;13.43;95.97
72210;BME280;60113;48.762;12.302;2023-08-06T06:50:14;96347.25;;;13.45;96.75
72210;BME280;60113;48.762;12.302;2023-08-06T06:52:41;96353.59;;;13.53;96.18
72210;BME280;60113;48.762;12.302;2023-08-06T06:55:06;96352.28;;;13.57;96.96
72210;BME280;60113;48.762;12.302;2023-08-06T06:57:40;96341.25;;;13.61;96.22
72210;BME280;60113;48.762;12.302;2023-08-06T07:00:14;96344.41;;;13.65;95.58
72210;BME280;60113;48.762;12.302;2023-08-06T07:02:42;96359.25;;;13.66;95.12
72210;BME280;60113;48.762;12.302;2023-08-06T07:05:08;96354.97;;;13.65;94.66
72210;BME280;60113;48.762;12.302;2023-08-06T07:07:37;96362.34;;;13.61;94.46
72210;BME280;60113;48.762;12.302;2023-08-06T07:10:05;96356.59;;;13.58;94.40
72210;BME280;60113;48.762;12.302;2023-08-06T07:12:33;96360.19;;;13.57;95.32
72210;BME280;60113;48.762;12.302;2023-08-06T07:14:59;96358.53;;;13.56;94.93
72210;BME280;60113;48.762;12.302;2023-08-06T07:17:27;96352.78;;;13.60;94.75
72210;BME280;60113;48.762;12.302;2023-08-06T07:19:52;96349.84;;;13.63;94.34
72210;BME280;60113;48.762;12.302;2023-08-06T07:22:18;96350.84;;;13.71;94.26
72210;BME280;60113;48.762;12.302;2023-08-06T07:24:43;96351.72;;;13.80;95.53
72210;BME280;60113;48.762;12.302;2023-08-06T07:27:14;96348.28;;;13.87;94.90
72210;BME280;60113;48.762;12.302;2023-08-06T07:29:39;96334.63;;;14.00;94.58
72210;BME280;60113;48.762;12.302;2023-08-06T07:32:07;96342.47;;;14.35;94.70
72210;BME280;60113;48.762;12.302;2023-08-06T07:34:38;96337.69;;;14.81;94.18
72210;BME280;60113;48.762;12.302;2023-08-06T07:37:09;96333.84;;;15.25;95.26
72210;BME280;60113;48.762;12.302;2023-08-06T07:39:43;96327.88;;;15.80;95.03
72210;BME280;60113;48.762;12.302;2023-08-06T07:42:11;96321.03;;;16.17;93.78
72210;BME280;60113;48.762;12.302;2023-08-06T07:44:40;96319.47;;;16.55;94.95
72210;BME280;60113;48.762;12.302;2023-08-06T07:47:08;96310.94;;;16.83;90.65
72210;BME280;60113;48.762;12.302;2023-08-06T07:49:42;96313.69;;;17.13;89.72
72210;BME280;60113;48.762;12.302;2023-08-06T07:52:13;96316.81;;;17.32;87.25
72210;BME280;60113;48.762;12.302;2023-08-06T07:54:39;96313.50;;;17.45;84.93
72210;BME280;60113;48.762;12.302;2023-08-06T07:57:13;96318.06;;;17.51;87.13
72210;BME280;60113;48.762;12.302;2023-08-06T07:59:40;96307.81;;;17.63;86.34
72210;BME280;60113;48.762;12.302;2023-08-06T08:02:10;96310.38;;;17.41;82.24
72210;BME280;60113;48.762;12.302;2023-08-06T08:04:35;96308.81;;;17.17;84.81
72210;BME280;60113;48.762;12.302;2023-08-06T08:07:01;96307.88;;;16.94;83.68
72210;BME280;60113;48.762;12.302;2023-08-06T08:09:29;96311.59;;;16.85;84.09
72210;BME280;60113;48.762;12.302;2023-08-06T08:11:55;96304.03;;;16.97;85.74
72210;BME280;60113;48.762;12.302;2023-08-06T08:14:23;96301.06;;;17.30;85.55
72210;BME280;60113;48.762;12.302;2023-08-06T08:16:49;96306.38;;;17.45;82.77
72210;BME280;60113;48.762;12.302;2023-08-06T08:19:14;96300.59;;;17.27;80.98
72210;BME280;60113;48.762;12.302;2023-08-06T08:21:39;96306.38;;;17.30;84.53
72210;BME280;60113;48.762;12.302;2023-08-06T08:24:05;96295.59;;;17.32;80.75
72210;BME280;60113;48.762;12.302;2023-08-06T08:26:30;96297.19;;;17.63;84.21
72210;BME280;60113;48.762;12.302;2023-08-06T08:28:59;96285.16;;;17.82;83.04
72210;BME280;60113;48.762;12.302;2023-08-06T08:31:24;96277.75;;;17.78;79.49
72210;BME280;60113;48.762;12.302;2023-08-06T08:33:49;96281.72;;;17.67;81.67
72210;BME280;60113;48.762;12.302;2023-08-06T08:36:15;96266.00;;;17.50;80.20
72210;BME280;60113;48.762;12.302;2023-08-06T08:38:43;96279.50;;;17.55;78.18
72210;BME280;60113;48.762;12.302;2023-08-06T08:41:15;96277.56;;;17.79;83.18
72210;BME280;60113;48.762;12.302;2023-08-06T08:43:44;96279.50;;;17.70;77.76
72210;BME280;60113;48.762;12.302;2023-08-06T08:46:11;96284.56;;;17.50;79.64
72210;BME280;60113;48.762;12.302;2023-08-06T08:48:40;96291.19;;;17.24;79.92
72210;BME280;60113;48.762;12.302;2023-08-06T08:51:09;96283.44;;;16.99;80.37
72210;BME280;60113;48.762;12.302;2023-08-06T08:53:36;96287.97;;;16.75;78.92
72210;BME280;60113;48.762;12.302;2023-08-06T08:56:09;96283.38;;;16.69;78.95
72210;BME280;60113;48.762;12.302;2023-08-06T08:58:41;96276.59;;;17.05;79.61
72210;BME280;60113;48.762;12.302;2023-08-06T09:01:10;96275.88;;;17.26;79.74
72210;BME280;60113;48.762;12.302;2023-08-06T09:03:36;96279.47;;;17.33;79.68
72210;BME280;60113;48.762;12.302;2023-08-06T09:06:02;96273.03;;;17.28;76.40
72210;BME280;60113;48.762;12.302;2023-08-06T09:08:36;96279.47;;;17.33;77.58
72210;BME280;60113;48.762;12.302;2023-08-06T09:11:04;96275.78;;;17.49;80.00
72210;BME280;60113;48.762;12.302;2023-08-06T09:13:30;96279.34;;;17.42;74.99
72210;BME280;60113;48.762;12.302;2023-08-06T09:15:55;96269.59;;;17.27;75.91
72210;BME280;60113;48.762;12.302;2023-08-06T09:18:27;96274.69;;;17.14;75.00
72210;BME280;60113;48.762;12.302;2023-08-06T09:21:01;96270.03;;;17.31;77.36
72210;BME280;60113;48.762;12.302;2023-08-06T09:23:30;96260.75;;;17.57;78.19
72210;BME280;60113;48.762;12.302;2023-08-06T09:25:59;96254.72;;;17.85;78.70
72210;BME280;60113;48.762;12.302;2023-08-06T09:28:36;96251.06;;;18.08;73.20
72210;BME280;60113;48.762;12.302;2023-08-06T09:31:06;96248.22;;;18.24;72.07
72210;BME280;60113;48.762;12.302;2023-08-06T09:33:31;96249.09;;;18.32;75.04
72210;BME280;60113;48.762;12.302;2023-08-06T09:36:07;96249.91;;;18.32;75.65
72210;BME280;60113;48.762;12.302;2023-08-06T09:38:37;96239.22;;;18.26;71.15
72210;BME280;60113;48.762;12.302;2023-08-06T09:41:07;96241.28;;;18.52;71.44
72210;BME280;60113;48.762;12.302;2023-08-06T09:43:43;96235.03;;;18.95;69.50
72210;BME280;60113;48.762;12.302;2023-08-06T09:46:12;96237.09;;;19.29;69.72
72210;BME280;60113;48.762;12.302;2023-08-06T09:48:38;96240.06;;;19.54;74.25
72210;BME280;60113;48.762;12.302;2023-08-06T09:51:08;96233.41;;;19.85;75.11
72210;BME280;60113;48.762;12.302;2023-08-06T09:53:39;96238.88;;;19.64;69.86
72210;BME280;60113;48.762;12.302;2023-08-06T09:56:05;96233.22;;;19.03;66.98
72210;BME280;60113;48.762;12.302;2023-08-06T09:58:32;96239.69;;;18.86;65.57
72210;BME280;60113;48.762;12.302;2023-08-06T10:00:59;96231.13;;;18.91;67.60
72210;BME280;60113;48.762;12.302;2023-08-06T10:03:25;96243.38;;;19.14;70.74
72210;BME280;60113;48.762;12.302;2023-08-06T10:05:55;96236.25;;;19.28;66.51
72210;BME280;60113;48.762;12.302;2023-08-06T10:08:20;96224.22;;;19.39;70.24
72210;BME280;60113;48.762;12.302;2023-08-06T10:10:52;96239.06;;;19.13;67.01
72210;BME280;60113;48.762;12.302;2023-08-06T10:13:33;96237.91;;;18.65;66.26
72210;BME280;60113;48.762;12.302;2023-08-06T10:16:03;96185.16;;;18.47;68.21
72210;BME280;60113;48.762;12.302;2023-08-06T10:18:39;96252.19;;;18.14;67.62
72210;BME280;60113;48.762;12.302;2023-08-06T10:21:08;96264.56;;;17.69;68.16
72210;BME280;60113;48.762;12.302;2023-08-06T10:23:36;96266.47;;;17.23;71.23
72210;BME280;60113;48.762;12.302;2023-08-06T10:26:05;96252.47;;;16.76;74.45
72210;BME280;60113;48.762;12.302;2023-08-06T10:28:43;96257.69;;;16.54;77.06
72210;BME280;60113;48.762;12.302;2023-08-06T10:31:11;96258.22;;;16.49;77.01
72210;BME280;60113;48.762;12.302;2023-08-06T10:33:47;96250.69;;;16.53;77.95
72210;BME280;60113;48.762;12.302;2023-08-06T10:36:15;96239.03;;;16.78;76.44
72210;BME280;60113;48.762;12.302;2023-08-06T10:38:50;96249.22;;;17.04;73.65
72210;BME280;60113;48.762;12.302;2023-08-06T10:41:29;96244.00;;;17.41;70.85
72210;BME280;60113;48.762;12.302;2023-08-06T10:44:05;96240.66;;;17.69;70.82
72210;BME280;60113;48.762;12.302;2023-08-06T10:46:51;96239.34;;;17.80;69.39
72210;BME280;60113;48.762;12.302;2023-08-06T10:49:17;96246.31;;;18.03;71.36
72210;BME280;60113;48.762;12.302;2023-08-06T10:51:46;96242.44;;;18.43;71.90
72210;BME280;60113;48.762;12.302;2023-08-06T10:54:29;96254.06;;;18.64;70.46
72210;BME280;60113;48.762;12.302;2023-08-06T10:56:55;96252.13;;;18.51;69.12
72210;BME280;60113;48.762;12.302;2023-08-06T10:59:23;96245.47;;;18.18;68.16
72210;BME280;60113;48.762;12.302;2023-08-06T11:01:49;96256.88;;;18.11;70.06
72210;BME280;60113;48.762;12.302;2023-08-06T11:04:24;96255.00;;;17.90;69.02
72210;BME280;60113;48.762;12.302;2023-08-06T11:06:52;96252.75;;;17.72;71.50
72210;BME280;60113;48.762;12.302;2023-08-06T11:09:18;96243.72;;;17.51;69.41
72210;BME280;60113;48.762;12.302;2023-08-06T11:11:49;96249.94;;;17.58;71.90
72210;BME280;60113;48.762;12.302;2023-08-06T11:14:18;96242.84;;;17.81;69.11
72210;BME280;60113;48.762;12.302;2023-08-06T11:16:52;96241.59;;;17.98;68.17
72210;BME280;60113;48.762;12.302;2023-08-06T11:19:26;96232.50;;;18.30;71.36
72210;BME280;60113;48.762;12.302;2023-08-06T11:21:56;96242.34;;;18.58;71.42
72210;BME280;60113;48.762;12.302;2023-08-06T11:24:23;96235.47;;;18.70;70.33
72210;BME280;60113;48.762;12.302;2023-08-06T11:26:49;96242.97;;;18.60;70.89
72210;BME280;60113;48.762;12.302;2023-08-06T11:29:15;96257.59;;;18.05;69.67
72210;BME280;60113;48.762;12.302;2023-08-06T11:31:41;96234.47;;;17.62;68.60
72210;BME280;60113;48.762;12.302;2023-08-06T11:34:06;96264.81;;;17.37;70.23
72210;BME280;60113;48.762;12.302;2023-08-06T11:36:41;96257.47;;;16.94;73.19
72210;BME280;60113;48.762;12.302;2023-08-06T11:39:09;96266.78;;;16.52;75.68
72210;BME280;60113;48.762;12.302;2023-08-06T11:41:37;96263.00;;;16.31;76.55
72210;BME280;60113;48.762;12.302;2023-08-06T11:44:10;96246.09;;;16.32;76.53
72210;BME280;60113;48.762;12.302;2023-08-06T11:46:55;96268.53;;;16.59;77.23
72210;BME280;60113;48.762;12.302;2023-08-06T11:55:05;96248.25;;;17.72;72.00
72210;BME280;60113;48.762;12.302;2023-08-06T11:57:44;96259.06;;;18.30;70.94
72210;BME280;60113;48.762;12.302;2023-08-06T12:00:13;96254.19;;;18.55;69.67
72210;BME280;60113;48.762;12.302;2023-08-06T12:02:42;96256.38;;;18.73;70.79
72210;BME280;60113;48.762;12.302;2023-08-06T12:05:14;96252.38;;;19.13;72.23
72210;BME280;60113;48.762;12.302;2023-08-06T12:07:48;96261.66;;;19.31;66.11
72210;BME280;60113;48.762;12.302;2023-08-06T12:10:24;96260.03;;;19.30;70.51
72210;BME280;60113;48.762;12.302;2023-08-06T12:12:53;96257.81;;;19.33;71.12
72210;BME280;60113;48.762;12.302;2023-08-06T12:15:19;96227.63;;;19.19;65.98
72210;BME280;60113;48.762;12.302;2023-08-06T12:17:44;96235.22;;;19.22;66.40
72210;BME280;60113;48.762;12.302;2023-08-06T12:20:10;96266.28;;;19.15;67.18
72210;BME280;60113;48.762;12.302;2023-08-06T12:22:45;96256.19;;;19.04;67.65
72210;BME280;60113;48.762;12.302;2023-08-06T12:25:11;96252.00;;;18.66;67.78
72210;BME280;60113;48.762;12.302;2023-08-06T12:27:38;96284.97;;;17.84;72.73
72210;BME280;60113;48.762;12.302;2023-08-06T12:30:05;96305.94;;;16.49;76.89
72210;BME280;60113;48.762;12.302;2023-08-06T12:32:31;96282.63;;;15.58;80.57
72210;BME280;60113;48.762;12.302;2023-08-06T12:34:57;96309.09;;;14.84;84.18
72210;BME280;60113;48.762;12.302;2023-08-06T12:37:24;96297.53;;;14.35;85.27
72210;BME280;60113;48.762;12.302;2023-08-06T12:39:53;96312.16;;;13.96;87.50
72210;BME280;60113;48.762;12.302;2023-08-06T12:42:18;96307.00;;;13.78;88.31
72210;BME280;60113;48.762;12.302;2023-08-06T12:44:44;96322.59;;;13.63;89.38
72210;BME280;60113;48.762;12.302;2023-08-06T12:47:09;96311.19;;;13.54;89.75
72210;BME280;60113;48.762;12.302;2023-08-06T12:49:37;96302.44;;;13.54;88.16
72210;BME280;60113;48.762;12.302;2023-08-06T12:52:15;96296.56;;;13.68;90.46
72210;BME280;60113;48.762;12.302;2023-08-06T12:54:40;96305.53;;;13.84;88.73
72210;BME280;60113;48.762;12.302;2023-08-06T12:57:06;96314.16;;;14.03;86.73
72210;BME280;60113;48.762;12.302;2023-08-06T12:59:38;96303.97;;;14.24;88.15
72210;BME280;60113;48.762;12.302;2023-08-06T13:02:03;96306.78;;;14.48;85.05
72210;BME280;60113;48.762;12.302;2023-08-06T13:04:47;96307.59;;;14.90;85.33
72210;BME280;60113;48.762;12.302;2023-08-06T13:07:12;96298.94;;;15.30;83.88
72210;BME280;60113;48.762;12.302;2023-08-06T13:09:38;96297.63;;;15.66;83.22
72210;BME280;60113;48.762;12.302;2023-08-06T13:12:03;96289.03;;;15.95;82.36
72210;BME280;60113;48.762;12.302;2023-08-06T13:14:42;96284.19;;;16.31;81.80
72210;BME280;60113;48.762;12.302;2023-08-06T13:17:17;96303.16;;;16.81;79.37